Time;durP1;ratioP1;P1;durP2;ratioP2;P2;SDS_P1;SDS_P2;PMS_P1;PMS_P2;Temp;Humidity;BMP_temperature;BMP_pressure;BME280_temperature;BME280_humidity;BME280_pressure;Samples;Min_cycle;Max_cycle;Signal;HPM_P1;HPM_P2
2022/05/19 00:01:17;;;;;;;9.65;3.45;;;21.40;92.60;;;;;;5052768;28;20040;-47
2022/05/19 00:03:43;;;;;;;4.20;3.70;;;21.50;92.60;;;;;;5052737;28;20025;-44
2022/05/19 00:06:10;;;;;;;7.95;3.78;;;21.50;92.50;;;;;;5052523;28;20484;-46
2022/05/19 00:08:36;;;;;;;5.03;3.40;;;21.50;92.50;;;;;;5052144;28;20025;-47
2022/05/19 00:11:06;;;;;;;4.68;3.13;;;21.50;92.60;;;;;;5052419;28;20025;-44
2022/05/19 00:13:32;;;;;;;4.75;3.25;;;21.40;92.50;;;;;;5052672;28;20159;-44
2022/05/19 00:15:58;;;;;;;3.55;3.15;;;21.40;92.60;;;;;;5052428;28;20555;-46
2022/05/19 00:18:25;;;;;;;7.57;3.70;;;21.30;92.50;;;;;;5052156;28;20374;-47
2022/05/19 00:20:50;;;;;;;15.50;10.32;;;21.30;92.70;;;;;;5052412;28;20017;-47
2022/05/19 00:23:17;;;;;;;3.90;3.30;;;21.20;92.50;;;;;;5052068;28;20044;-46
2022/05/19 00:25:42;;;;;;;6.40;3.45;;;21.20;92.40;;;;;;5052338;28;20029;-44
2022/05/19 00:28:09;;;;;;;4.97;3.00;;;21.30;92.40;;;;;;5052203;28;20124;-44
2022/05/19 00:30:35;;;;;;;5.00;3.05;;;21.20;92.60;;;;;;5052753;28;20021;-47
2022/05/19 00:33:01;;;;;;;3.38;3.08;;;21.10;92.60;;;;;;5052224;28;20035;-45
2022/05/19 00:35:26;;;;;;;4.88;3.72;;;21.10;92.80;;;;;;5051082;28;20583;-48
2022/05/19 00:37:52;;;;;;;6.35;3.47;;;21.00;92.80;;;;;;5051913;28;20040;-45
2022/05/19 00:40:19;;;;;;;5.30;3.22;;;21.00;92.80;;;;;;5051374;28;20023;-44
2022/05/19 00:42:45;;;;;;;5.18;3.17;;;21.00;92.90;;;;;;5052578;28;20028;-49
2022/05/19 00:45:18;;;;;;;3.72;3.42;;;20.90;93.10;;;;;;5052211;28;20117;-44
2022/05/19 00:47:55;;;;;;;4.93;3.35;;;20.80;93.10;;;;;;5051849;28;20540;-45
2022/05/19 00:50:45;;;;;;;5.82;3.10;;;20.90;93.10;;;;;;5052000;28;20029;-45
2022/05/19 00:53:38;;;;;;;4.35;3.40;;;20.80;93.10;;;;;;5052125;28;20055;-45
2022/05/19 00:56:29;;;;;;;6.00;3.45;;;20.70;93.40;;;;;;5052102;28;20037;-45
2022/05/19 00:59:18;;;;;;;6.00;3.38;;;20.70;93.40;;;;;;5051928;28;20438;-45
2022/05/19 01:01:44;;;;;;;6.25;3.58;;;20.70;93.70;;;;;;5051849;28;20021;-45
2022/05/19 01:04:18;;;;;;;5.15;3.92;;;20.60;93.60;;;;;;5051966;28;20025;-45
2022/05/19 01:06:47;;;;;;;5.28;3.78;;;20.50;93.90;;;;;;5051492;28;20017;-45
2022/05/19 01:09:15;;;;;;;4.88;3.78;;;20.50;94.10;;;;;;5051548;28;20017;-45
2022/05/19 01:11:41;;;;;;;5.53;3.72;;;20.40;94.20;;;;;;5051888;28;20021;-47
2022/05/19 01:14:08;;;;;;;4.15;3.55;;;20.30;94.50;;;;;;5051590;28;20044;-45
2022/05/19 01:16:34;;;;;;;3.38;3.17;;;20.20;94.60;;;;;;5051457;28;20063;-44
2022/05/19 01:19:02;;;;;;;4.18;3.78;;;20.10;94.80;;;;;;5051278;28;20378;-45
2022/05/19 01:21:32;;;;;;;5.00;3.35;;;20.10;94.80;;;;;;5050764;28;20504;-43
2022/05/19 01:24:11;;;;;;;6.85;3.80;;;20.00;94.80;;;;;;5051659;28;20078;-48
2022/05/19 01:26:48;;;;;;;3.95;3.47;;;20.00;95.00;;;;;;5051329;28;20096;-47
2022/05/19 01:29:18;;;;;;;5.97;3.55;;;20.00;95.00;;;;;;5051437;28;20051;-50
2022/05/19 01:31:45;;;;;;;10.07;3.72;;;20.00;95.00;;;;;;5051235;28;20551;-50
2022/05/19 01:34:11;;;;;;;7.97;3.78;;;20.00;95.00;;;;;;5051206;28;20021;-47
2022/05/19 01:36:37;;;;;;;7.05;4.03;;;20.10;94.90;;;;;;5051182;28;20029;-47
2022/05/19 01:39:09;;;;;;;7.50;3.65;;;20.00;95.00;;;;;;5050958;28;20025;-47
2022/05/19 01:41:53;;;;;;;3.78;3.47;;;20.00;95.10;;;;;;5051144;28;20020;-48
2022/05/19 01:44:54;;;;;;;6.97;3.63;;;19.90;95.00;;;;;;5051340;28;20049;-47
2022/05/19 01:47:25;;;;;;;4.35;3.90;;;19.90;95.00;;;;;;5050881;28;20067;-48
2022/05/19 01:50:00;;;;;;;4.13;3.17;;;19.90;95.10;;;;;;5051193;28;20036;-45
2022/05/19 01:53:09;;;;;;;6.68;3.65;;;19.80;95.10;;;;;;5050685;28;20467;-49
2022/05/19 01:55:53;;;;;;;4.97;3.42;;;19.80;95.30;;;;;;5051879;28;20078;-47
2022/05/19 01:58:49;;;;;;;7.97;3.28;;;19.70;95.40;;;;;;5050959;28;20403;-48
2022/05/19 02:01:19;;;;;;;6.40;3.20;;;19.70;95.20;;;;;;5051056;28;20104;-47
2022/05/19 02:03:55;;;;;;;3.75;3.33;;;19.70;95.30;;;;;;5051074;28;20032;-45
2022/05/19 02:06:43;;;;;;;4.50;3.00;;;19.60;95.10;;;;;;5050908;28;20032;-50
2022/05/19 02:09:24;;;;;;;3.95;3.22;;;19.60;95.10;;;;;;5050736;28;20067;-49
2022/05/19 02:11:56;;;;;;;7.57;2.95;;;19.60;95.10;;;;;;5051220;28;20044;-45
2022/05/19 02:14:35;;;;;;;3.97;3.38;;;19.60;95.10;;;;;;5050993;28;20060;-46
2022/05/19 02:17:04;;;;;;;4.05;3.05;;;19.60;94.90;;;;;;5050611;28;20435;-47
2022/05/19 02:19:37;;;;;;;4.75;3.13;;;19.60;95.00;;;;;;5050793;28;20071;-46
2022/05/19 02:22:05;;;;;;;3.60;3.20;;;19.60;94.70;;;;;;5050715;28;20025;-45
2022/05/19 02:24:35;;;;;;;5.88;3.10;;;19.60;94.60;;;;;;5051200;28;20515;-46
2022/05/19 02:27:32;;;;;;;3.05;2.80;;;19.70;94.50;;;;;;5050524;28;20447;-46
2022/05/19 02:30:04;;;;;;;5.32;3.50;;;19.70;94.50;;;;;;5050722;28;20392;-48
2022/05/19 02:32:30;;;;;;;3.90;2.92;;;19.70;94.60;;;;;;5051577;28;20029;-47
2022/05/19 02:34:55;;;;;;;4.03;2.92;;;19.60;94.60;;;;;;5054263;28;20056;-48
2022/05/19 02:37:21;;;;;;;5.28;3.17;;;19.50;94.70;;;;;;5053865;28;20057;-46
2022/05/19 02:39:46;;;;;;;3.53;3.20;;;19.40;94.90;;;;;;5054265;28;20060;-48
2022/05/19 02:42:11;;;;;;;5.03;3.20;;;19.50;95.00;;;;;;5054163;28;20370;-45
2022/05/19 02:44:37;;;;;;;9.45;3.55;;;19.40;95.20;;;;;;5054043;28;20028;-44
2022/05/19 02:47:03;;;;;;;3.33;2.97;;;19.30;95.30;;;;;;5053852;28;20033;-44
2022/05/19 02:49:28;;;;;;;3.75;3.42;;;19.20;95.40;;;;;;5054265;28;20238;-45
2022/05/19 02:51:54;;;;;;;4.05;3.22;;;19.20;95.30;;;;;;5054268;28;20105;-46
2022/05/19 02:54:21;;;;;;;7.75;3.22;;;19.20;95.40;;;;;;5054184;28;20033;-45
2022/05/19 02:56:49;;;;;;;4.00;3.70;;;19.10;95.40;;;;;;5053701;28;20053;-44
2022/05/19 02:59:15;;;;;;;9.07;4.28;;;19.10;95.40;;;;;;5053869;28;20511;-46
2022/05/19 03:01:41;;;;;;;5.40;4.05;;;19.10;95.60;;;;;;5053750;28;20071;-46
2022/05/19 03:04:07;;;;;;;6.95;3.47;;;19.00;95.60;;;;;;5053846;28;20552;-44
2022/05/19 03:06:32;;;;;;;4.20;3.50;;;19.00;95.80;;;;;;5053768;28;20025;-46
2022/05/19 03:08:58;;;;;;;6.22;3.90;;;18.90;95.80;;;;;;5053441;28;20432;-46
2022/05/19 03:11:23;;;;;;;13.27;3.60;;;18.80;95.90;;;;;;5053623;28;20028;-45
2022/05/19 03:13:49;;;;;;;9.60;4.68;;;18.80;96.10;;;;;;5053668;28;20017;-48
2022/05/19 03:16:15;;;;;;;3.83;3.42;;;18.70;96.20;;;;;;5053608;28;20337;-45
2022/05/19 03:18:40;;;;;;;4.22;3.17;;;18.60;96.20;;;;;;5053201;28;20508;-44
2022/05/19 03:21:06;;;;;;;3.60;3.20;;;18.60;96.40;;;;;;5053666;28;20021;-47
2022/05/19 03:23:32;;;;;;;5.50;3.13;;;18.50;96.30;;;;;;5053665;28;20033;-46
2022/05/19 03:25:57;;;;;;;4.07;3.67;;;18.50;96.30;;;;;;5052130;28;20021;-47
2022/05/19 03:28:23;;;;;;;6.75;3.05;;;18.60;96.30;;;;;;5053125;28;20396;-45
2022/05/19 03:30:49;;;;;;;4.78;3.50;;;18.50;96.40;;;;;;5053457;28;20100;-47
2022/05/19 03:33:14;;;;;;;6.45;3.70;;;18.50;96.50;;;;;;5053263;28;20399;-46
2022/05/19 03:35:40;;;;;;;6.03;3.65;;;18.40;96.40;;;;;;5053204;28;20423;-44
2022/05/19 03:38:06;;;;;;;7.13;3.25;;;18.40;96.40;;;;;;5052916;28;20021;-49
2022/05/19 03:40:32;;;;;;;4.80;3.50;;;18.40;96.30;;;;;;5053176;28;20029;-47
2022/05/19 03:42:58;;;;;;;6.22;3.38;;;18.40;96.30;;;;;;5052657;28;20102;-48
2022/05/19 03:45:24;;;;;;;7.32;3.38;;;18.40;96.30;;;;;;5053218;28;20025;-46
2022/05/19 03:47:49;;;;;;;3.45;3.13;;;18.40;96.40;;;;;;5052719;28;20480;-46
2022/05/19 03:50:15;;;;;;;3.30;3.00;;;18.30;96.40;;;;;;5052834;28;20036;-45
2022/05/19 03:52:42;;;;;;;9.43;3.63;;;18.30;96.30;;;;;;5052321;28;20111;-44
2022/05/19 03:55:09;;;;;;;3.85;3.45;;;18.30;96.30;;;;;;5052954;28;20029;-47
2022/05/19 03:57:35;;;;;;;10.10;4.05;;;18.30;96.20;;;;;;5052536;28;20349;-45
2022/05/19 04:00:01;;;;;;;3.78;3.38;;;18.40;96.50;;;;;;5052808;28;20036;-45
2022/05/19 04:02:27;;;;;;;3.20;2.90;;;18.40;96.20;;;;;;5052578;28;20025;-47
2022/05/19 04:04:52;;;;;;;6.55;3.50;;;18.30;96.20;;;;;;5052585;28;20032;-45
2022/05/19 04:07:18;;;;;;;3.42;3.10;;;18.30;96.10;;;;;;5052264;28;20107;-47
2022/05/19 04:09:43;;;;;;;4.70;3.45;;;18.30;96.10;;;;;;5052509;28;20504;-45
2022/05/19 04:12:09;;;;;;;3.33;3.03;;;18.30;96.10;;;;;;5052367;28;20025;-45
2022/05/19 04:14:36;;;;;;;4.38;3.22;;;18.30;96.10;;;;;;5051109;28;20025;-47
2022/05/19 04:17:01;;;;;;;3.78;3.03;;;18.30;96.20;;;;;;5051953;28;20609;-47
2022/05/19 04:19:27;;;;;;;6.80;3.47;;;18.30;96.20;;;;;;5052497;28;20040;-47
2022/05/19 04:21:52;;;;;;;4.47;3.60;;;18.30;96.20;;;;;;5050993;28;20036;-49
2022/05/19 04:24:18;;;;;;;4.53;3.45;;;18.30;96.10;;;;;;5052326;28;20025;-48
2022/05/19 04:26:43;;;;;;;3.80;3.05;;;18.30;96.10;;;;;;5052253;28;20519;-48
2022/05/19 04:29:09;;;;;;;5.07;3.20;;;18.20;96.30;;;;;;5052071;28;20569;-45
2022/05/19 04:31:35;;;;;;;8.88;3.67;;;18.20;96.30;;;;;;5052399;28;20095;-44
2022/05/19 04:34:01;;;;;;;6.85;3.22;;;18.20;96.30;;;;;;5052138;28;20097;-46
2022/05/19 04:36:27;;;;;;;5.70;3.28;;;18.20;96.30;;;;;;5052116;28;20433;-45
2022/05/19 04:38:52;;;;;;;6.57;3.35;;;18.20;96.40;;;;;;5051745;28;20496;-47
2022/05/19 04:41:18;;;;;;;5.57;3.35;;;18.30;96.30;;;;;;5052022;28;20096;-46
2022/05/19 04:43:43;;;;;;;6.93;3.10;;;18.40;96.30;;;;;;5051909;28;20021;-46
2022/05/19 04:46:09;;;;;;;6.75;3.40;;;18.30;96.20;;;;;;5051786;28;20036;-46
2022/05/19 04:48:35;;;;;;;4.15;2.92;;;18.30;96.20;;;;;;5051520;28;20074;-50
2022/05/19 04:51:00;;;;;;;5.70;2.88;;;18.30;96.10;;;;;;5051206;28;20025;-47
2022/05/19 04:53:26;;;;;;;3.63;3.10;;;18.40;96.10;;;;;;5051664;28;20097;-45
2022/05/19 04:55:53;;;;;;;8.80;3.58;;;18.40;96.00;;;;;;5050940;28;20500;-46
2022/05/19 04:58:20;;;;;;;4.40;3.20;;;18.60;95.70;;;;;;5050204;28;20365;-46
2022/05/19 05:00:50;;;;;;;2.72;2.53;;;18.60;95.70;;;;;;5056407;28;20078;-44
2022/05/19 05:03:16;;;;;;;3.67;2.72;;;18.70;95.60;;;;;;5069152;28;20032;-47
2022/05/19 05:05:41;;;;;;;4.80;2.70;;;18.80;95.70;;;;;;5072043;28;20051;-51
2022/05/19 05:08:07;;;;;;;15.23;3.63;;;18.80;95.40;;;;;;5062210;28;20017;-43
2022/05/19 05:10:33;;;;;;;5.70;2.65;;;18.80;95.30;;;;;;5053757;28;20563;-43
2022/05/19 05:13:04;;;;;;;4.40;2.90;;;18.90;95.30;;;;;;5071586;28;20056;-47
2022/05/19 05:15:30;;;;;;;4.75;3.15;;;18.90;95.40;;;;;;5066778;28;20040;-44
2022/05/19 05:17:55;;;;;;;4.30;3.15;;;18.90;95.40;;;;;;5069954;28;20067;-45
2022/05/19 05:20:21;;;;;;;3.33;3.03;;;19.00;95.10;;;;;;5051678;28;20431;-43
2022/05/19 05:22:47;;;;;;;3.80;3.20;;;19.00;95.10;;;;;;5078841;22;20471;-45
2022/05/19 05:25:14;;;;;;;2.88;2.55;;;19.00;94.90;;;;;;5050690;28;20061;-48
2022/05/19 05:27:40;;;;;;;6.28;3.45;;;19.10;94.90;;;;;;5049360;28;20071;-45
2022/05/19 05:30:07;;;;;;;4.85;3.30;;;19.10;95.10;;;;;;5051069;28;20049;-41
2022/05/19 05:32:32;;;;;;;8.38;2.90;;;19.00;95.20;;;;;;5015387;28;20033;-50
2022/05/19 05:34:58;;;;;;;3.40;3.10;;;19.00;95.10;;;;;;5030064;28;20033;-44
2022/05/19 05:37:24;;;;;;;4.47;2.92;;;19.00;95.20;;;;;;5031040;28;20029;-45
2022/05/19 05:39:50;;;;;;;3.55;2.60;;;19.10;95.00;;;;;;5035812;28;20021;-45
2022/05/19 05:42:15;;;;;;;11.23;3.28;;;19.10;95.10;;;;;;5051080;28;20052;-46
2022/05/19 05:44:41;;;;;;;5.95;2.90;;;19.10;95.00;;;;;;5051324;28;20065;-43
2022/05/19 05:47:06;;;;;;;5.75;2.70;;;19.20;95.20;;;;;;5037440;28;20033;-45
2022/05/19 05:49:32;;;;;;;5.47;2.60;;;19.20;95.30;;;;;;5032015;28;20025;-45
2022/05/19 05:51:57;;;;;;;3.45;2.47;;;19.30;95.00;;;;;;5033931;28;20072;-46
2022/05/19 05:54:23;;;;;;;4.22;3.40;;;19.50;94.70;;;;;;5032579;28;20105;-47
2022/05/19 05:56:49;;;;;;;3.08;2.78;;;19.50;94.40;;;;;;5030963;28;20061;-50
2022/05/19 05:59:14;;;;;;;5.82;3.42;;;19.70;94.50;;;;;;5048133;28;20025;-45
2022/05/19 06:01:40;;;;;;;5.25;2.47;;;19.80;94.40;;;;;;5050554;28;20053;-51
2022/05/19 06:04:05;;;;;;;8.88;2.67;;;19.90;94.10;;;;;;5050537;28;20048;-46
2022/05/19 06:06:31;;;;;;;5.53;3.40;;;19.80;94.30;;;;;;5051456;28;20048;-46
2022/05/19 06:08:57;;;;;;;3.08;2.80;;;19.90;94.30;;;;;;5050764;28;20083;-48
2022/05/19 06:11:22;;;;;;;6.13;3.05;;;19.90;94.30;;;;;;5054727;28;20029;-47
2022/05/19 06:13:50;;;;;;;3.83;2.83;;;19.90;94.50;;;;;;5054737;28;20033;-44
2022/05/19 06:16:16;;;;;;;3.05;2.78;;;20.00;94.60;;;;;;5036427;28;20025;-50
2022/05/19 06:18:41;;;;;;;3.42;2.80;;;20.00;94.60;;;;;;5034416;28;20044;-50
2022/05/19 06:21:07;;;;;;;4.65;2.92;;;20.00;94.40;;;;;;5053862;28;20036;-46
2022/05/19 06:23:33;;;;;;;6.63;2.88;;;20.10;94.40;;;;;;5054008;28;20512;-43
2022/05/19 06:25:59;;;;;;;10.88;3.15;;;20.00;94.70;;;;;;5054603;28;20269;-49
2022/05/19 06:28:24;;;;;;;5.05;2.70;;;20.10;94.70;;;;;;5053981;28;20060;-47
2022/05/19 06:30:49;;;;;;;5.97;2.67;;;20.30;94.60;;;;;;5054396;28;20060;-44
2022/05/19 06:33:17;;;;;;;10.05;3.83;;;20.40;94.40;;;;;;5054602;28;20123;-46
2022/05/19 06:35:44;;;;;;;4.78;2.83;;;20.50;94.20;;;;;;5054348;28;20051;-51
2022/05/19 06:38:09;;;;;;;11.88;3.22;;;20.60;94.10;;;;;;5053937;28;20029;-43
2022/05/19 06:40:35;;;;;;;6.95;2.92;;;20.80;93.60;;;;;;5054756;28;20036;-44
2022/05/19 06:43:05;;;;;;;3.75;2.72;;;20.90;93.70;;;;;;5054413;28;20052;-46
2022/05/19 06:45:31;;;;;;;6.10;3.28;;;20.90;94.00;;;;;;5054172;28;20024;-46
2022/05/19 06:47:57;;;;;;;4.78;2.90;;;20.90;94.10;;;;;;5053687;28;20108;-46
2022/05/19 06:50:23;;;;;;;9.10;2.95;;;21.10;93.60;;;;;;5054416;28;20021;-46
2022/05/19 06:52:57;;;;;;;5.70;2.88;;;21.20;93.10;;;;;;5054196;28;20025;-46
2022/05/19 06:55:23;;;;;;;4.60;2.90;;;21.20;93.50;;;;;;5054074;28;20112;-47
2022/05/19 06:57:49;;;;;;;7.70;2.75;;;21.50;93.00;;;;;;5053076;28;20405;-46
2022/05/19 07:00:18;;;;;;;9.30;3.22;;;21.70;92.40;;;;;;5054306;28;20029;-54
2022/05/19 07:02:48;;;;;;;6.28;2.70;;;22.00;92.00;;;;;;5053744;28;20404;-48
2022/05/19 07:05:14;;;;;;;10.20;4.25;;;22.30;90.90;;;;;;5054149;28;20108;-51
2022/05/19 07:07:40;;;;;;;11.43;2.67;;;22.50;90.80;;;;;;5053412;28;20076;-48
2022/05/19 07:10:06;;;;;;;5.82;2.67;;;22.80;90.10;;;;;;5053523;28;20090;-50
2022/05/19 07:12:33;;;;;;;7.78;2.70;;;23.10;89.30;;;;;;5052947;28;20112;-50
2022/05/19 07:14:59;;;;;;;7.22;2.72;;;23.30;88.40;;;;;;5053968;28;20311;-48
2022/05/19 07:17:25;;;;;;;10.60;3.00;;;23.30;89.10;;;;;;5052489;28;20063;-46
2022/05/19 07:22:35;;;;;;;5.65;2.50;;;23.50;88.10;;;;;;5053255;28;20457;-48
2022/05/19 07:25:01;;;;;;;5.35;3.17;;;23.60;87.50;;;;;;5051397;28;20095;-48
2022/05/19 07:27:27;;;;;;;5.80;2.30;;;23.80;85.70;;;;;;5052309;28;20029;-47
2022/05/19 07:29:53;;;;;;;3.50;2.30;;;24.00;85.00;;;;;;5053334;28;20485;-50
2022/05/19 07:32:19;;;;;;;6.18;2.80;;;24.20;85.40;;;;;;5053159;28;20040;-49
2022/05/19 07:34:44;;;;;;;3.55;2.08;;;24.40;84.30;;;;;;5053287;28;20143;-44
2022/05/19 07:37:11;;;;;;;17.02;3.65;;;24.70;82.50;;;;;;5051228;28;20116;-52
2022/05/19 07:39:37;;;;;;;7.35;2.28;;;25.10;80.90;;;;;;5052532;28;20025;-50
2022/05/19 07:42:02;;;;;;;3.22;2.20;;;25.50;78.30;;;;;;5052799;28;20032;-50
2022/05/19 07:44:29;;;;;;;4.32;1.73;;;26.00;77.80;;;;;;5052935;28;20048;-51
2022/05/19 07:46:54;;;;;;;3.30;1.98;;;26.50;77.40;;;;;;5052526;28;20025;-55
2022/05/19 07:49:20;;;;;;;2.95;1.83;;;27.00;76.40;;;;;;5052320;28;20039;-49
2022/05/19 07:51:47;;;;;;;2.25;2.03;;;27.60;73.00;;;;;;5053072;28;20036;-45
2022/05/19 07:54:19;;;;;;;4.05;1.63;;;28.30;71.30;;;;;;5052043;28;20017;-51
2022/05/19 07:56:46;;;;;;;3.50;1.70;;;29.00;69.00;;;;;;5052339;28;20143;-44
2022/05/19 07:59:13;;;;;;;5.65;1.77;;;29.80;66.40;;;;;;5052641;28;20025;-46
2022/05/19 08:01:40;;;;;;;20.42;5.03;;;30.20;65.60;;;;;;5052417;28;20079;-51
2022/05/19 08:04:07;;;;;;;2.38;1.67;;;30.90;66.00;;;;;;5052121;28;20112;-49
2022/05/19 08:06:33;;;;;;;2.63;1.15;;;31.50;63.00;;;;;;5052428;28;20083;-46
2022/05/19 08:09:00;;;;;;;3.40;1.60;;;31.60;62.10;;;;;;5052290;28;20051;-48
2022/05/19 08:11:27;;;;;;;10.57;1.75;;;31.90;61.00;;;;;;5052482;28;20025;-45
2022/05/19 08:16:36;;;;;;;8.55;2.17;;;32.40;60.60;;;;;;5052770;28;20098;-50
2022/05/19 08:19:03;;;;;;;6.72;1.48;;;32.60;61.00;;;;;;5050412;28;20033;-54
2022/05/19 08:21:30;;;;;;;5.97;1.80;;;32.50;60.80;;;;;;5052326;28;20037;-47
2022/05/19 08:23:56;;;;;;;3.63;1.70;;;32.70;60.80;;;;;;5051863;28;20066;-50
2022/05/19 08:26:21;;;;;;;4.40;2.25;;;32.70;61.40;;;;;;5051816;28;20029;-48
2022/05/19 08:28:48;;;;;;;4.97;1.38;;;32.60;60.30;;;;;;5051644;28;20485;-47
2022/05/19 08:31:20;;;;;;;4.65;1.70;;;32.00;58.40;;;;;;5051948;28;20090;-48
2022/05/19 08:33:48;;;;;;;1.77;1.50;;;31.60;59.60;;;;;;5051743;28;20021;-45
2022/05/19 08:36:14;;;;;;;2.85;1.63;;;31.20;60.60;;;;;;5051928;28;20029;-45
2022/05/19 08:38:41;;;;;;;3.33;1.42;;;30.60;59.90;;;;;;5051283;28;20458;-45
2022/05/19 08:41:33;;;;;;;4.07;2.28;;;30.30;60.10;;;;;;5051190;28;20025;-45
2022/05/19 08:44:26;;;;;;;3.65;1.67;;;29.90;61.80;;;;;;5049983;28;20116;-45
2022/05/19 08:46:54;;;;;;;2.67;1.40;;;29.90;61.20;;;;;;5051673;28;20554;-51
2022/05/19 08:49:30;;;;;;;5.65;2.15;;;29.90;61.70;;;;;;5051660;28;20025;-49
2022/05/19 08:52:03;;;;;;;8.52;1.70;;;30.20;61.60;;;;;;5051661;28;20017;-46
2022/05/19 08:54:31;;;;;;;2.42;2.05;;;30.00;62.90;;;;;;5051588;28;20029;-45
2022/05/19 08:57:12;;;;;;;4.35;1.50;;;29.70;63.60;;;;;;5049808;28;20021;-47
2022/05/19 09:00:00;;;;;;;11.55;2.20;;;29.60;63.40;;;;;;5051781;28;20127;-44
2022/05/19 09:02:47;;;;;;;3.00;1.50;;;29.80;64.40;;;;;;5051722;28;20029;-47
2022/05/19 09:05:23;;;;;;;8.75;2.10;;;30.00;63.20;;;;;;5052910;28;20024;-46
2022/05/19 09:08:15;;;;;;;10.02;2.10;;;29.90;63.70;;;;;;5052859;28;20031;-46
2022/05/19 09:11:02;;;;;;;4.13;1.90;;;29.90;63.80;;;;;;5051578;28;20036;-51
2022/05/19 09:14:01;;;;;;;5.35;2.20;;;29.50;64.20;;;;;;5052122;28;20029;-47
2022/05/19 09:16:35;;;;;;;6.75;1.92;;;29.30;64.70;;;;;;5051476;28;20515;-46
2022/05/19 09:19:30;;;;;;;4.57;1.98;;;29.40;65.20;;;;;;5050869;28;20058;-50
2022/05/19 09:22:04;;;;;;;;;;;29.50;65.10;;;;;;5051579;28;20020;-48
2022/05/19 09:24:30;;;;;;;7.82;2.35;;;29.70;66.00;;;;;;5051205;28;20372;-49
2022/05/19 09:26:58;;;;;;;8.95;2.88;;;29.50;65.40;;;;;;5051137;28;20021;-48
2022/05/19 09:29:32;;;;;;;9.90;3.17;;;29.30;65.40;;;;;;5051322;28;20389;-50
2022/05/19 09:32:12;;;;;;;3.33;2.00;;;29.30;66.40;;;;;;5051303;28;20187;-47
2022/05/19 09:34:37;;;;;;;7.80;3.38;;;29.40;66.90;;;;;;5051294;28;20040;-46
2022/05/19 09:37:08;;;;;;;4.43;2.00;;;29.40;67.20;;;;;;5050861;28;20064;-46
2022/05/19 09:40:00;;;;;;;5.95;1.88;;;29.30;67.20;;;;;;5051293;28;20036;-51
2022/05/19 09:42:35;;;;;;;5.03;1.80;;;29.50;67.80;;;;;;5053089;28;20104;-43
2022/05/19 09:45:01;;;;;;;7.63;2.10;;;29.50;67.80;;;;;;5055330;28;20017;-47
2022/05/19 09:47:31;;;;;;;5.60;2.00;;;29.50;66.90;;;;;;5054995;28;20395;-43
2022/05/19 09:50:29;;;;;;;6.88;3.95;;;29.50;67.10;;;;;;5055122;28;20060;-44
2022/05/19 09:53:04;;;;;;;15.13;2.50;;;29.60;67.10;;;;;;5054945;28;20357;-50
2022/05/19 09:55:30;;;;;;;5.05;2.30;;;29.40;68.40;;;;;;5055051;28;20025;-47
2022/05/19 09:57:59;;;;;;;5.18;2.15;;;29.30;67.90;;;;;;5055020;28;20550;-51
2022/05/19 10:00:53;;;;;;;9.10;2.40;;;29.10;67.20;;;;;;5054892;28;20526;-47
2022/05/19 10:03:41;;;;;;;5.45;2.33;;;28.90;67.80;;;;;;5052993;28;20119;-49
2022/05/19 10:06:15;;;;;;;4.32;2.10;;;28.90;68.90;;;;;;5054761;28;20029;-50
2022/05/19 10:08:44;;;;;;;5.00;2.50;;;28.80;68.90;;;;;;5054641;28;20063;-48
2022/05/19 10:11:12;;;;;;;5.38;3.95;;;28.30;69.80;;;;;;5054590;28;20021;-47
2022/05/19 10:14:08;;;;;;;6.00;2.50;;;28.20;70.50;;;;;;5054660;28;20033;-46
2022/05/19 10:16:47;;;;;;;6.72;2.45;;;28.20;71.20;;;;;;5049752;28;20044;-47
2022/05/19 10:19:32;;;;;;;8.70;4.28;;;28.10;71.50;;;;;;5054400;28;20029;-45
2022/05/19 10:22:24;;;;;;;6.55;2.60;;;28.10;71.00;;;;;;5054335;28;20154;-42
2022/05/19 10:25:01;;;;;;;4.00;2.63;;;28.20;71.10;;;;;;5054533;28;20040;-44
2022/05/19 10:31:04;;;;;;;4.97;2.40;;;28.40;71.50;;;;;;5054250;28;20464;-49
2022/05/19 10:33:44;;;;;;;9.32;2.80;;;28.50;71.20;;;;;;5053994;28;20040;-52
2022/05/19 10:36:38;;;;;;;4.47;2.65;;;28.60;71.30;;;;;;5054284;28;20048;-46
2022/05/19 10:39:17;;;;;;;13.70;3.08;;;28.60;72.70;;;;;;5053836;28;20036;-48
2022/05/19 10:42:15;;;;;;;5.55;2.95;;;28.60;72.80;;;;;;5054505;28;20443;-48
2022/05/19 10:45:04;;;;;;;2.25;1.92;;;28.60;72.40;;;;;;5054196;28;20016;-42
2022/05/19 10:47:30;;;;;;;4.95;2.53;;;28.70;72.20;;;;;;5053817;28;20074;-42
2022/05/19 10:50:30;;;;;;;5.93;2.40;;;28.80;71.60;;;;;;5053983;28;20029;-45
2022/05/19 10:53:22;;;;;;;4.07;1.98;;;28.60;71.30;;;;;;5030186;28;20401;-47
2022/05/19 10:56:02;;;;;;;3.28;2.40;;;28.70;71.20;;;;;;5053946;28;20104;-50
2022/05/19 10:59:05;;;;;;;2.72;1.90;;;28.70;71.80;;;;;;5053512;28;20568;-46
2022/05/19 11:02:14;;;;;;;5.80;2.30;;;28.60;72.10;;;;;;5053914;28;20100;-46
2022/05/19 11:05:17;;;;;;;2.05;1.80;;;28.60;72.40;;;;;;5030674;28;20033;-47
2022/05/19 11:08:03;;;;;;;3.28;2.35;;;28.50;72.10;;;;;;5053282;28;20484;-46
2022/05/19 11:10:47;;;;;;;4.55;2.45;;;28.50;71.80;;;;;;5053868;28;20111;-44
2022/05/19 11:13:18;;;;;;;5.25;1.90;;;28.50;71.50;;;;;;5052600;28;20388;-52
2022/05/19 11:15:54;;;;;;;4.05;2.50;;;28.40;72.60;;;;;;5053379;28;20104;-52
2022/05/19 11:18:40;;;;;;;3.55;2.38;;;28.50;71.90;;;;;;5053314;28;20067;-47
2022/05/19 11:21:06;;;;;;;4.65;2.35;;;28.50;72.30;;;;;;5053497;28;20029;-50
2022/05/19 11:23:50;;;;;;;5.60;2.30;;;28.50;71.50;;;;;;5074747;22;20420;-44
2022/05/19 11:26:55;;;;;;;3.22;1.80;;;28.50;72.20;;;;;;5035580;28;20305;-48
2022/05/19 11:29:38;;;;;;;6.13;2.28;;;28.60;73.10;;;;;;5053282;28;20032;-43
2022/05/19 11:32:10;;;;;;;5.55;2.22;;;28.80;73.20;;;;;;5035185;28;20072;-44
2022/05/19 11:35:03;;;;;;;6.32;2.60;;;28.80;71.80;;;;;;5053244;28;20017;-43
2022/05/19 11:37:53;;;;;;;12.80;5.47;;;28.90;71.50;;;;;;5052459;28;20029;-42
2022/05/19 11:40:45;;;;;;;69.13;53.30;;;28.90;70.90;;;;;;5053000;28;20041;-41
2022/05/19 11:43:19;;;;;;;7.75;4.88;;;28.90;71.50;;;;;;5052607;28;20021;-44
2022/05/19 11:46:19;;;;;;;3.65;2.20;;;29.00;73.60;;;;;;5052425;28;20056;-45
2022/05/19 11:57:42;;;;;;;8.50;2.30;;;29.10;72.90;;;;;;5030655;28;20464;-44
2022/05/19 12:00:11;;;;;;;11.48;2.60;;;29.20;72.70;;;;;;5031886;28;20036;-46
2022/05/19 12:02:55;;;;;;;3.00;2.60;;;29.00;72.30;;;;;;5032953;28;20443;-44
2022/05/19 12:05:25;;;;;;;6.53;2.47;;;28.90;72.80;;;;;;5032807;28;20013;-45
2022/05/19 12:07:54;;;;;;;7.60;2.40;;;28.90;73.60;;;;;;5033046;28;20108;-48
2022/05/19 12:10:44;;;;;;;6.22;2.75;;;29.00;73.30;;;;;;5048112;28;20047;-46
2022/05/19 12:13:11;;;;;;;9.63;2.95;;;29.10;74.20;;;;;;5052439;28;20099;-45
2022/05/19 12:15:48;;;;;;;5.20;2.53;;;29.10;73.00;;;;;;5053582;28;20108;-50
2022/05/19 12:18:23;;;;;;;7.38;2.47;;;29.10;73.20;;;;;;5054976;28;20021;-47
2022/05/19 12:20:53;;;;;;;7.43;2.63;;;29.10;74.20;;;;;;5054184;28;20025;-50
2022/05/19 12:23:24;;;;;;;5.03;2.80;;;29.10;73.80;;;;;;5053508;28;20104;-46
2022/05/19 12:25:59;;;;;;;15.63;3.05;;;29.20;75.40;;;;;;5053717;28;20104;-48
2022/05/19 12:28:53;;;;;;;4.13;3.00;;;29.30;73.50;;;;;;5053405;28;20094;-44
2022/05/19 12:31:59;;;;;;;6.82;2.40;;;29.20;73.20;;;;;;5031527;28;20080;-46
2022/05/19 12:34:32;;;;;;;7.90;3.33;;;29.20;74.30;;;;;;5053414;28;20096;-48
2022/05/19 12:37:33;;;;;;;7.70;2.83;;;29.30;73.20;;;;;;5048779;28;20025;-50
2022/05/19 12:40:38;;;;;;;11.77;2.58;;;29.20;73.60;;;;;;5032392;28;20021;-52
2022/05/19 12:43:13;;;;;;;3.33;2.63;;;29.10;73.30;;;;;;5032261;28;20022;-49
2022/05/19 12:45:51;;;;;;;2.40;2.20;;;29.00;73.20;;;;;;5031779;28;20053;-49
2022/05/19 12:48:18;;;;;;;10.88;2.85;;;29.00;74.40;;;;;;5032431;28;20036;-50
2022/05/19 12:50:50;;;;;;;6.90;2.92;;;28.90;75.00;;;;;;5051343;28;20142;-51
2022/05/19 12:53:21;;;;;;;5.25;2.63;;;28.80;75.50;;;;;;5051834;28;20037;-51
2022/05/19 12:55:53;;;;;;;5.30;2.75;;;28.80;75.50;;;;;;5053446;28;20037;-54
2022/05/19 12:58:37;;;;;;;6.55;2.78;;;28.70;75.50;;;;;;5051813;28;20340;-49
2022/05/19 13:01:21;;;;;;;8.73;2.97;;;28.70;76.00;;;;;;5053489;28;20207;-49
2022/05/19 13:04:03;;;;;;;3.23;2.77;;;28.70;75.80;;;;;;5051576;28;20013;-52
2022/05/19 13:06:32;;;;;;;11.98;4.85;;;28.90;76.60;;;;;;5049502;28;20384;-55
2022/05/19 13:09:03;;;;;;;11.40;6.50;;;28.80;76.80;;;;;;5051119;28;20024;-50
2022/05/19 13:11:33;;;;;;;7.00;3.42;;;28.90;76.60;;;;;;5051843;28;20107;-52
2022/05/19 13:14:07;;;;;;;12.63;3.08;;;29.00;77.00;;;;;;5050200;28;20025;-49
2022/05/19 13:16:37;;;;;;;7.35;2.75;;;29.10;76.60;;;;;;5050524;28;20021;-48
2022/05/19 13:19:29;;;;;;;7.35;2.95;;;29.30;75.80;;;;;;5050385;28;20024;-50
2022/05/19 13:21:58;;;;;;;6.13;3.40;;;29.40;74.70;;;;;;5050877;28;20386;-49
2022/05/19 13:24:26;;;;;;;7.07;3.08;;;29.50;74.70;;;;;;5049959;28;20098;-48
2022/05/19 13:32:33;;;;;;;4.05;3.47;;;29.50;74.00;;;;;;5052793;28;20219;-46
2022/05/19 13:34:59;;;;;;;9.25;3.70;;;29.60;74.60;;;;;;5052559;28;20366;-50